sensor_id;sensor_type;location;lat;lon;timestamp;temperature;humidity
23335;DHT22;11839;48.598;8.870;2024-03-08T00:00:17;5.90;99.90
23335;DHT22;11839;48.598;8.870;2024-03-08T00:02:45;5.70;99.90
23335;DHT22;11839;48.598;8.870;2024-03-08T00:05:13;5.50;99.90
23335;DHT22;11839;48.598;8.870;2024-03-08T00:07:41;5.50;99.90
23335;DHT22;11839;48.598;8.870;2024-03-08T00:10:09;5.60;99.90
23335;DHT22;11839;48.598;8.870;2024-03-08T00:12:38;5.60;99.90
23335;DHT22;11839;48.598;8.870;2024-03-08T00:15:08;5.90;99.90
23335;DHT22;11839;48.598;8.870;2024-03-08T00:17:35;5.60;99.90
23335;DHT22;11839;48.598;8.870;2024-03-08T00:20:01;5.30;99.90
23335;DHT22;11839;48.598;8.870;2024-03-08T00:22:33;5.30;99.90
23335;DHT22;11839;48.598;8.870;2024-03-08T00:25:01;5.10;99.90
23335;DHT22;11839;48.598;8.870;2024-03-08T00:27:28;5.00;99.90
23335;DHT22;11839;48.598;8.870;2024-03-08T00:29:57;4.80;99.90
23335;DHT22;11839;48.598;8.870;2024-03-08T00:32:24;4.70;99.90
23335;DHT22;11839;48.598;8.870;2024-03-08T00:34:51;4.60;99.90
23335;DHT22;11839;48.598;8.870;2024-03-08T00:37:18;4.60;99.90
23335;DHT22;11839;48.598;8.870;2024-03-08T00:39:45;4.60;99.90
23335;DHT22;11839;48.598;8.870;2024-03-08T00:42:11;4.70;99.90
23335;DHT22;11839;48.598;8.870;2024-03-08T00:44:39;4.70;99.90
23335;DHT22;11839;48.598;8.870;2024-03-08T00:47:07;4.70;99.90
23335;DHT22;11839;48.598;8.870;2024-03-08T00:49:34;4.70;99.90
23335;DHT22;11839;48.598;8.870;2024-03-08T00:52:02;4.70;99.90
23335;DHT22;11839;48.598;8.870;2024-03-08T00:54:28;4.70;99.90
23335;DHT22;11839;48.598;8.870;2024-03-08T00:56:55;4.70;99.90
23335;DHT22;11839;48.598;8.870;2024-03-08T00:59:22;4.60;99.90
23335;DHT22;11839;48.598;8.870;2024-03-08T01:01:49;4.50;99.90
23335;DHT22;11839;48.598;8.870;2024-03-08T01:04:17;4.30;99.90
23335;DHT22;11839;48.598;8.870;2024-03-08T01:06:45;4.40;99.90
23335;DHT22;11839;48.598;8.870;2024-03-08T01:09:12;4.40;99.90
23335;DHT22;11839;48.598;8.870;2024-03-08T01:11:39;4.60;99.90
23335;DHT22;11839;48.598;8.870;2024-03-08T01:14:07;4.70;99.90
23335;DHT22;11839;48.598;8.870;2024-03-08T01:16:34;4.50;99.90
23335;DHT22;11839;48.598;8.870;2024-03-08T01:19:01;4.40;99.90
23335;DHT22;11839;48.598;8.870;2024-03-08T01:21:30;4.30;99.90
23335;DHT22;11839;48.598;8.870;2024-03-08T01:23:56;4.30;99.90
23335;DHT22;11839;48.598;8.870;2024-03-08T01:26:23;4.10;99.90
23335;DHT22;11839;48.598;8.870;2024-03-08T01:28:50;4.20;99.90
23335;DHT22;11839;48.598;8.870;2024-03-08T01:31:17;4.10;99.90
23335;DHT22;11839;48.598;8.870;2024-03-08T01:33:43;4.30;99.90
23335;DHT22;11839;48.598;8.870;2024-03-08T01:36:10;4.30;99.90
23335;DHT22;11839;48.598;8.870;2024-03-08T01:38:42;4.30;99.90
23335;DHT22;11839;48.598;8.870;2024-03-08T01:41:08;4.20;99.90
23335;DHT22;11839;48.598;8.870;2024-03-08T01:43:35;4.10;99.90
23335;DHT22;11839;48.598;8.870;2024-03-08T01:46:03;3.80;99.90
23335;DHT22;11839;48.598;8.870;2024-03-08T01:48:30;3.70;99.90
23335;DHT22;11839;48.598;8.870;2024-03-08T01:50:57;3.60;99.90
23335;DHT22;11839;48.598;8.870;2024-03-08T01:53:24;3.60;99.90
23335;DHT22;11839;48.598;8.870;2024-03-08T01:55:55;3.60;99.90
23335;DHT22;11839;48.598;8.870;2024-03-08T01:58:23;3.60;99.90
23335;DHT22;11839;48.598;8.870;2024-03-08T02:00:52;3.50;99.90
23335;DHT22;11839;48.598;8.870;2024-03-08T02:03:19;3.70;99.90
23335;DHT22;11839;48.598;8.870;2024-03-08T02:05:46;3.70;99.90
23335;DHT22;11839;48.598;8.870;2024-03-08T02:08:13;3.70;99.90
23335;DHT22;11839;48.598;8.870;2024-03-08T02:10:41;3.70;99.90
23335;DHT22;11839;48.598;8.870;2024-03-08T02:13:09;3.70;99.90
23335;DHT22;11839;48.598;8.870;2024-03-08T02:15:53;3.70;99.90
23335;DHT22;11839;48.598;8.870;2024-03-08T02:18:21;3.50;99.90
23335;DHT22;11839;48.598;8.870;2024-03-08T02:20:49;3.40;99.90
23335;DHT22;11839;48.598;8.870;2024-03-08T02:23:16;3.50;99.90
23335;DHT22;11839;48.598;8.870;2024-03-08T02:25:43;3.40;99.90
23335;DHT22;11839;48.598;8.870;2024-03-08T02:28:11;3.40;99.90
23335;DHT22;11839;48.598;8.870;2024-03-08T02:30:38;3.40;99.90
23335;DHT22;11839;48.598;8.870;2024-03-08T02:33:06;3.50;99.90
23335;DHT22;11839;48.598;8.870;2024-03-08T02:35:33;3.30;99.90
23335;DHT22;11839;48.598;8.870;2024-03-08T02:38:01;3.10;99.90
23335;DHT22;11839;48.598;8.870;2024-03-08T02:40:29;3.00;99.90
23335;DHT22;11839;48.598;8.870;2024-03-08T02:42:56;2.90;99.90
23335;DHT22;11839;48.598;8.870;2024-03-08T02:45:22;2.90;99.90
23335;DHT22;11839;48.598;8.870;2024-03-08T02:47:50;2.90;99.90
23335;DHT22;11839;48.598;8.870;2024-03-08T02:50:17;2.80;99.90
23335;DHT22;11839;48.598;8.870;2024-03-08T02:52:43;2.70;99.90
23335;DHT22;11839;48.598;8.870;2024-03-08T02:55:13;3.10;99.90
23335;DHT22;11839;48.598;8.870;2024-03-08T02:57:41;3.30;99.90
23335;DHT22;11839;48.598;8.870;2024-03-08T03:00:09;3.20;99.90
23335;DHT22;11839;48.598;8.870;2024-03-08T03:02:36;2.90;99.90
23335;DHT22;11839;48.598;8.870;2024-03-08T03:05:04;3.00;99.90
23335;DHT22;11839;48.598;8.870;2024-03-08T03:07:31;3.10;99.90
23335;DHT22;11839;48.598;8.870;2024-03-08T03:09:58;3.40;99.90
23335;DHT22;11839;48.598;8.870;2024-03-08T03:12:27;3.30;99.90
23335;DHT22;11839;48.598;8.870;2024-03-08T03:14:53;3.30;99.90
23335;DHT22;11839;48.598;8.870;2024-03-08T03:17:21;3.40;99.90
23335;DHT22;11839;48.598;8.870;2024-03-08T03:19:48;3.20;99.90
23335;DHT22;11839;48.598;8.870;2024-03-08T03:22:15;3.10;99.90
23335;DHT22;11839;48.598;8.870;2024-03-08T03:24:42;3.20;99.90
23335;DHT22;11839;48.598;8.870;2024-03-08T03:27:09;3.20;99.90
23335;DHT22;11839;48.598;8.870;2024-03-08T03:29:38;3.30;99.90
23335;DHT22;11839;48.598;8.870;2024-03-08T03:32:05;3.30;99.90
23335;DHT22;11839;48.598;8.870;2024-03-08T03:34:33;3.20;99.90
23335;DHT22;11839;48.598;8.870;2024-03-08T03:37:01;3.40;99.90
23335;DHT22;11839;48.598;8.870;2024-03-08T03:39:28;3.50;99.90
23335;DHT22;11839;48.598;8.870;2024-03-08T03:41:57;3.40;99.90
23335;DHT22;11839;48.598;8.870;2024-03-08T03:44:24;3.40;99.90
23335;DHT22;11839;48.598;8.870;2024-03-08T03:46:52;3.20;99.90
23335;DHT22;11839;48.598;8.870;2024-03-08T03:49:19;3.30;99.90
23335;DHT22;11839;48.598;8.870;2024-03-08T03:51:46;3.40;99.90
23335;DHT22;11839;48.598;8.870;2024-03-08T03:54:13;3.40;99.90
23335;DHT22;11839;48.598;8.870;2024-03-08T03:56:39;3.40;99.90
23335;DHT22;11839;48.598;8.870;2024-03-08T03:59:06;3.40;99.90
23335;DHT22;11839;48.598;8.870;2024-03-08T04:01:33;3.30;99.90
23335;DHT22;11839;48.598;8.870;2024-03-08T04:04:02;3.20;99.90
23335;DHT22;11839;48.598;8.870;2024-03-08T04:06:28;2.80;99.90
23335;DHT22;11839;48.598;8.870;2024-03-08T04:08:56;2.80;99.90
23335;DHT22;11839;48.598;8.870;2024-03-08T04:11:22;2.80;99.90
23335;DHT22;11839;48.598;8.870;2024-03-08T04:13:49;2.80;99.90
23335;DHT22;11839;48.598;8.870;2024-03-08T04:16:16;2.90;99.90
23335;DHT22;11839;48.598;8.870;2024-03-08T04:18:44;3.00;99.90
23335;DHT22;11839;48.598;8.870;2024-03-08T04:21:12;3.00;99.90
23335;DHT22;11839;48.598;8.870;2024-03-08T04:23:39;3.10;99.90
23335;DHT22;11839;48.598;8.870;2024-03-08T04:26:06;3.10;99.90
23335;DHT22;11839;48.598;8.870;2024-03-08T04:28:34;3.40;99.90
23335;DHT22;11839;48.598;8.870;2024-03-08T04:31:03;3.40;99.90
23335;DHT22;11839;48.598;8.870;2024-03-08T04:33:29;3.20;99.90
23335;DHT22;11839;48.598;8.870;2024-03-08T04:35:56;2.90;99.90
23335;DHT22;11839;48.598;8.870;2024-03-08T04:38:24;2.70;99.90
23335;DHT22;11839;48.598;8.870;2024-03-08T04:40:51;2.50;99.90
23335;DHT22;11839;48.598;8.870;2024-03-08T04:43:19;2.40;99.90
23335;DHT22;11839;48.598;8.870;2024-03-08T04:45:46;2.40;99.90
23335;DHT22;11839;48.598;8.870;2024-03-08T04:48:14;2.50;99.90
23335;DHT22;11839;48.598;8.870;2024-03-08T04:50:41;2.50;99.90
23335;DHT22;11839;48.598;8.870;2024-03-08T04:53:07;2.60;99.90
23335;DHT22;11839;48.598;8.870;2024-03-08T04:55:36;2.40;99.90
23335;DHT22;11839;48.598;8.870;2024-03-08T04:58:03;2.30;99.90
23335;DHT22;11839;48.598;8.870;2024-03-08T05:00:31;2.20;99.90
23335;DHT22;11839;48.598;8.870;2024-03-08T05:02:58;2.10;99.90
23335;DHT22;11839;48.598;8.870;2024-03-08T05:05:24;2.00;99.90
23335;DHT22;11839;48.598;8.870;2024-03-08T05:07:51;2.20;99.90
23335;DHT22;11839;48.598;8.870;2024-03-08T05:10:19;2.30;99.90
23335;DHT22;11839;48.598;8.870;2024-03-08T05:12:47;2.40;99.90
23335;DHT22;11839;48.598;8.870;2024-03-08T05:15:14;2.50;99.90
23335;DHT22;11839;48.598;8.870;2024-03-08T05:17:41;2.40;99.90
23335;DHT22;11839;48.598;8.870;2024-03-08T05:20:08;2.50;99.90
23335;DHT22;11839;48.598;8.870;2024-03-08T05:22:37;2.40;99.90
23335;DHT22;11839;48.598;8.870;2024-03-08T05:25:06;2.70;99.90
23335;DHT22;11839;48.598;8.870;2024-03-08T05:27:33;2.80;99.90
23335;DHT22;11839;48.598;8.870;2024-03-08T05:30:02;2.80;99.90
23335;DHT22;11839;48.598;8.870;2024-03-08T05:32:29;2.90;99.90
23335;DHT22;11839;48.598;8.870;2024-03-08T05:34:57;2.70;99.90
23335;DHT22;11839;48.598;8.870;2024-03-08T05:37:23;2.70;99.90
23335;DHT22;11839;48.598;8.870;2024-03-08T05:39:50;2.70;99.90
23335;DHT22;11839;48.598;8.870;2024-03-08T05:42:17;2.80;99.90
23335;DHT22;11839;48.598;8.870;2024-03-08T05:44:44;2.80;99.90
23335;DHT22;11839;48.598;8.870;2024-03-08T05:47:12;2.80;99.90
23335;DHT22;11839;48.598;8.870;2024-03-08T05:49:38;3.00;99.90
23335;DHT22;11839;48.598;8.870;2024-03-08T05:52:05;3.00;99.90
23335;DHT22;11839;48.598;8.870;2024-03-08T05:54:32;3.20;99.90
23335;DHT22;11839;48.598;8.870;2024-03-08T05:56:59;3.30;99.90
23335;DHT22;11839;48.598;8.870;2024-03-08T05:59:26;3.40;99.90
23335;DHT22;11839;48.598;8.870;2024-03-08T06:01:52;3.70;99.90
23335;DHT22;11839;48.598;8.870;2024-03-08T06:04:21;3.80;99.90
23335;DHT22;11839;48.598;8.870;2024-03-08T06:06:48;3.70;99.90
23335;DHT22;11839;48.598;8.870;2024-03-08T06:09:17;3.90;99.90
23335;DHT22;11839;48.598;8.870;2024-03-08T06:11:48;3.90;99.90
23335;DHT22;11839;48.598;8.870;2024-03-08T06:14:15;3.70;99.90
23335;DHT22;11839;48.598;8.870;2024-03-08T06:16:44;3.70;99.90
23335;DHT22;11839;48.598;8.870;2024-03-08T06:19:10;3.50;99.90
23335;DHT22;11839;48.598;8.870;2024-03-08T06:21:38;3.60;99.90
23335;DHT22;11839;48.598;8.870;2024-03-08T06:24:07;3.60;99.90
23335;DHT22;11839;48.598;8.870;2024-03-08T06:26:33;3.60;99.90
23335;DHT22;11839;48.598;8.870;2024-03-08T06:29:01;3.60;99.90
23335;DHT22;11839;48.598;8.870;2024-03-08T06:31:28;3.60;99.90
23335;DHT22;11839;48.598;8.870;2024-03-08T06:33:55;3.60;99.90
23335;DHT22;11839;48.598;8.870;2024-03-08T06:36:21;3.70;99.90
23335;DHT22;11839;48.598;8.870;2024-03-08T06:38:50;3.90;99.90
23335;DHT22;11839;48.598;8.870;2024-03-08T06:41:17;4.00;99.90
23335;DHT22;11839;48.598;8.870;2024-03-08T06:43:44;3.90;99.90
23335;DHT22;11839;48.598;8.870;2024-03-08T06:46:11;4.30;99.90
23335;DHT22;11839;48.598;8.870;2024-03-08T06:48:38;4.50;99.90
23335;DHT22;11839;48.598;8.870;2024-03-08T06:51:05;4.40;99.90
23335;DHT22;11839;48.598;8.870;2024-03-08T06:53:32;4.50;99.90
23335;DHT22;11839;48.598;8.870;2024-03-08T06:56:02;4.40;99.90
23335;DHT22;11839;48.598;8.870;2024-03-08T06:58:28;4.90;99.90
23335;DHT22;11839;48.598;8.870;2024-03-08T07:00:55;5.00;99.90
23335;DHT22;11839;48.598;8.870;2024-03-08T07:03:24;5.20;99.90
23335;DHT22;11839;48.598;8.870;2024-03-08T07:05:51;5.50;99.90
23335;DHT22;11839;48.598;8.870;2024-03-08T07:08:18;5.70;99.90
23335;DHT22;11839;48.598;8.870;2024-03-08T07:10:47;5.50;99.90
23335;DHT22;11839;48.598;8.870;2024-03-08T07:13:16;5.50;99.90
23335;DHT22;11839;48.598;8.870;2024-03-08T07:15:43;5.80;99.90
23335;DHT22;11839;48.598;8.870;2024-03-08T07:18:11;5.90;99.90
23335;DHT22;11839;48.598;8.870;2024-03-08T07:20:40;5.80;99.90
23335;DHT22;11839;48.598;8.870;2024-03-08T07:23:07;5.90;99.90
23335;DHT22;11839;48.598;8.870;2024-03-08T07:25:36;6.00;99.90
23335;DHT22;11839;48.598;8.870;2024-03-08T07:28:04;6.00;99.90
23335;DHT22;11839;48.598;8.870;2024-03-08T07:30:34;5.30;99.90
23335;DHT22;11839;48.598;8.870;2024-03-08T07:33:26;5.40;99.90
23335;DHT22;11839;48.598;8.870;2024-03-08T07:35:53;5.50;99.90
23335;DHT22;11839;48.598;8.870;2024-03-08T07:38:20;5.10;99.90
23335;DHT22;11839;48.598;8.870;2024-03-08T07:40:47;5.20;99.90
23335;DHT22;11839;48.598;8.870;2024-03-08T07:43:14;5.10;99.90
23335;DHT22;11839;48.598;8.870;2024-03-08T07:45:42;5.00;99.90
23335;DHT22;11839;48.598;8.870;2024-03-08T07:48:08;5.00;99.90
23335;DHT22;11839;48.598;8.870;2024-03-08T07:50:36;5.20;99.90
23335;DHT22;11839;48.598;8.870;2024-03-08T07:53:03;5.40;99.90
23335;DHT22;11839;48.598;8.870;2024-03-08T07:55:31;5.20;99.90
23335;DHT22;11839;48.598;8.870;2024-03-08T07:57:58;5.30;99.90
23335;DHT22;11839;48.598;8.870;2024-03-08T08:00:25;5.40;99.90
23335;DHT22;11839;48.598;8.870;2024-03-08T08:02:54;5.70;99.90
23335;DHT22;11839;48.598;8.870;2024-03-08T08:05:21;5.90;99.90
23335;DHT22;11839;48.598;8.870;2024-03-08T08:07:48;5.40;99.90
23335;DHT22;11839;48.598;8.870;2024-03-08T08:10:15;5.20;99.90
23335;DHT22;11839;48.598;8.870;2024-03-08T08:12:44;5.40;99.90
23335;DHT22;11839;48.598;8.870;2024-03-08T08:15:11;5.40;99.90
23335;DHT22;11839;48.598;8.870;2024-03-08T08:17:38;5.50;99.90
23335;DHT22;11839;48.598;8.870;2024-03-08T08:20:07;5.30;99.90
23335;DHT22;11839;48.598;8.870;2024-03-08T08:22:35;5.50;99.90
23335;DHT22;11839;48.598;8.870;2024-03-08T08:25:04;5.30;99.90
23335;DHT22;11839;48.598;8.870;2024-03-08T08:27:31;5.40;99.90
23335;DHT22;11839;48.598;8.870;2024-03-08T08:29:58;5.20;99.90
23335;DHT22;11839;48.598;8.870;2024-03-08T08:32:25;5.10;99.90
23335;DHT22;11839;48.598;8.870;2024-03-08T08:34:53;5.10;99.90
23335;DHT22;11839;48.598;8.870;2024-03-08T08:37:21;4.90;99.90
23335;DHT22;11839;48.598;8.870;2024-03-08T08:39:49;5.30;99.90
23335;DHT22;11839;48.598;8.870;2024-03-08T08:42:16;5.80;99.90
23335;DHT22;11839;48.598;8.870;2024-03-08T08:44:43;5.60;99.90
23335;DHT22;11839;48.598;8.870;2024-03-08T08:47:10;5.30;99.90
23335;DHT22;11839;48.598;8.870;2024-03-08T08:49:37;5.10;99.90
23335;DHT22;11839;48.598;8.870;2024-03-08T08:52:04;5.40;99.90
23335;DHT22;11839;48.598;8.870;2024-03-08T08:54:32;5.30;99.90
23335;DHT22;11839;48.598;8.870;2024-03-08T08:56:59;5.20;99.90
23335;DHT22;11839;48.598;8.870;2024-03-08T08:59:26;5.50;99.90
23335;DHT22;11839;48.598;8.870;2024-03-08T09:01:53;5.30;99.90
23335;DHT22;11839;48.598;8.870;2024-03-08T09:04:20;5.70;99.90
23335;DHT22;11839;48.598;8.870;2024-03-08T09:06:48;5.70;99.90
23335;DHT22;11839;48.598;8.870;2024-03-08T09:09:15;5.60;99.90
23335;DHT22;11839;48.598;8.870;2024-03-08T09:11:44;5.50;99.90
23335;DHT22;11839;48.598;8.870;2024-03-08T09:14:11;5.60;99.90
23335;DHT22;11839;48.598;8.870;2024-03-08T09:16:38;5.50;99.90
23335;DHT22;11839;48.598;8.870;2024-03-08T09:19:05;5.50;99.90
23335;DHT22;11839;48.598;8.870;2024-03-08T09:21:32;5.60;99.90
23335;DHT22;11839;48.598;8.870;2024-03-08T09:24:00;5.70;99.90
23335;DHT22;11839;48.598;8.870;2024-03-08T09:26:26;5.80;99.90
23335;DHT22;11839;48.598;8.870;2024-03-08T09:28:55;5.70;99.90
23335;DHT22;11839;48.598;8.870;2024-03-08T09:31:21;5.40;99.90
23335;DHT22;11839;48.598;8.870;2024-03-08T09:33:48;5.30;99.90
23335;DHT22;11839;48.598;8.870;2024-03-08T09:36:16;5.40;99.90
23335;DHT22;11839;48.598;8.870;2024-03-08T09:38:43;5.60;99.90
23335;DHT22;11839;48.598;8.870;2024-03-08T09:41:09;5.60;99.90
23335;DHT22;11839;48.598;8.870;2024-03-08T09:43:38;5.70;99.90
23335;DHT22;11839;48.598;8.870;2024-03-08T09:46:07;5.70;99.90
23335;DHT22;11839;48.598;8.870;2024-03-08T09:48:34;5.70;99.90
23335;DHT22;11839;48.598;8.870;2024-03-08T09:51:02;5.60;99.90
23335;DHT22;11839;48.598;8.870;2024-03-08T09:53:29;5.30;99.90
23335;DHT22;11839;48.598;8.870;2024-03-08T09:55:56;5.50;99.90
23335;DHT22;11839;48.598;8.870;2024-03-08T09:58:24;5.80;99.90
23335;DHT22;11839;48.598;8.870;2024-03-08T10:01:18;6.30;99.90
23335;DHT22;11839;48.598;8.870;2024-03-08T10:03:47;6.60;99.90
23335;DHT22;11839;48.598;8.870;2024-03-08T10:06:14;6.60;99.90
23335;DHT22;11839;48.598;8.870;2024-03-08T10:08:41;6.30;99.90
23335;DHT22;11839;48.598;8.870;2024-03-08T10:11:08;6.20;99.90
23335;DHT22;11839;48.598;8.870;2024-03-08T10:13:37;6.20;99.90
23335;DHT22;11839;48.598;8.870;2024-03-08T10:16:06;6.10;99.90
23335;DHT22;11839;48.598;8.870;2024-03-08T10:18:34;5.90;99.90
23335;DHT22;11839;48.598;8.870;2024-03-08T10:21:05;5.80;99.90
23335;DHT22;11839;48.598;8.870;2024-03-08T10:23:33;5.90;99.90
23335;DHT22;11839;48.598;8.870;2024-03-08T10:26:12;6.20;99.90
23335;DHT22;11839;48.598;8.870;2024-03-08T10:28:41;6.20;99.90
23335;DHT22;11839;48.598;8.870;2024-03-08T10:31:08;6.30;99.90
23335;DHT22;11839;48.598;8.870;2024-03-08T10:33:37;6.60;99.90
23335;DHT22;11839;48.598;8.870;2024-03-08T10:36:07;6.90;99.90
23335;DHT22;11839;48.598;8.870;2024-03-08T10:38:36;6.90;99.90
23335;DHT22;11839;48.598;8.870;2024-03-08T10:41:03;7.40;99.90
23335;DHT22;11839;48.598;8.870;2024-03-08T10:43:36;7.50;99.90
23335;DHT22;11839;48.598;8.870;2024-03-08T10:46:16;7.30;99.90
23335;DHT22;11839;48.598;8.870;2024-03-08T10:48:50;7.10;99.90
23335;DHT22;11839;48.598;8.870;2024-03-08T10:51:19;6.60;99.90
23335;DHT22;11839;48.598;8.870;2024-03-08T10:53:47;6.50;99.90
23335;DHT22;11839;48.598;8.870;2024-03-08T10:56:14;6.60;99.90
23335;DHT22;11839;48.598;8.870;2024-03-08T10:58:42;6.50;99.90
23335;DHT22;11839;48.598;8.870;2024-03-08T11:01:10;7.10;99.90
23335;DHT22;11839;48.598;8.870;2024-03-08T11:03:48;6.80;99.90
23335;DHT22;11839;48.598;8.870;2024-03-08T11:06:22;6.70;99.90
23335;DHT22;11839;48.598;8.870;2024-03-08T11:08:49;6.70;99.90
23335;DHT22;11839;48.598;8.870;2024-03-08T11:11:27;7.10;99.90
23335;DHT22;11839;48.598;8.870;2024-03-08T11:13:55;7.00;99.90
23335;DHT22;11839;48.598;8.870;2024-03-08T11:16:38;6.70;99.90
23335;DHT22;11839;48.598;8.870;2024-03-08T11:19:25;6.60;99.90
23335;DHT22;11839;48.598;8.870;2024-03-08T11:21:58;6.80;99.90
23335;DHT22;11839;48.598;8.870;2024-03-08T11:24:24;7.30;99.90
23335;DHT22;11839;48.598;8.870;2024-03-08T11:26:57;7.80;99.90
23335;DHT22;11839;48.598;8.870;2024-03-08T11:29:35;7.70;99.90
23335;DHT22;11839;48.598;8.870;2024-03-08T11:32:07;7.70;99.90
23335;DHT22;11839;48.598;8.870;2024-03-08T11:34:35;8.10;99.90
23335;DHT22;11839;48.598;8.870;2024-03-08T11:37:04;8.70;99.90
23335;DHT22;11839;48.598;8.870;2024-03-08T11:39:31;9.50;99.90
23335;DHT22;11839;48.598;8.870;2024-03-08T11:41:58;10.40;99.90
23335;DHT22;11839;48.598;8.870;2024-03-08T11:44:27;10.30;99.90
23335;DHT22;11839;48.598;8.870;2024-03-08T11:46:54;10.30;99.90
23335;DHT22;11839;48.598;8.870;2024-03-08T11:49:21;10.50;99.90
23335;DHT22;11839;48.598;8.870;2024-03-08T11:51:52;10.60;99.90
23335;DHT22;11839;48.598;8.870;2024-03-08T11:54:19;9.80;99.90
23335;DHT22;11839;48.598;8.870;2024-03-08T11:56:46;9.20;99.90
23335;DHT22;11839;48.598;8.870;2024-03-08T11:59:13;9.40;99.90
23335;DHT22;11839;48.598;8.870;2024-03-08T12:01:40;9.10;99.90
23335;DHT22;11839;48.598;8.870;2024-03-08T12:04:11;9.40;99.90
23335;DHT22;11839;48.598;8.870;2024-03-08T12:06:39;9.50;99.90
23335;DHT22;11839;48.598;8.870;2024-03-08T12:09:10;9.50;99.90
23335;DHT22;11839;48.598;8.870;2024-03-08T12:11:37;9.30;99.90
23335;DHT22;11839;48.598;8.870;2024-03-08T12:14:04;9.40;99.90
23335;DHT22;11839;48.598;8.870;2024-03-08T12:16:31;9.30;99.90
23335;DHT22;11839;48.598;8.870;2024-03-08T12:18:59;9.30;99.90
23335;DHT22;11839;48.598;8.870;2024-03-08T12:21:31;9.60;99.90
23335;DHT22;11839;48.598;8.870;2024-03-08T12:24:04;9.40;99.90
23335;DHT22;11839;48.598;8.870;2024-03-08T12:26:36;9.10;99.90
23335;DHT22;11839;48.598;8.870;2024-03-08T12:29:20;9.00;99.90
23335;DHT22;11839;48.598;8.870;2024-03-08T12:31:49;9.20;99.90
23335;DHT22;11839;48.598;8.870;2024-03-08T12:34:17;8.80;99.90
23335;DHT22;11839;48.598;8.870;2024-03-08T12:36:48;9.00;99.90
23335;DHT22;11839;48.598;8.870;2024-03-08T12:39:17;8.80;99.90
23335;DHT22;11839;48.598;8.870;2024-03-08T12:41:49;9.00;99.90
23335;DHT22;11839;48.598;8.870;2024-03-08T12:44:17;9.40;99.90
23335;DHT22;11839;48.598;8.870;2024-03-08T12:46:44;10.00;99.90
23335;DHT22;11839;48.598;8.870;2024-03-08T12:49:11;10.20;99.90
23335;DHT22;11839;48.598;8.870;2024-03-08T12:51:38;10.00;99.90
23335;DHT22;11839;48.598;8.870;2024-03-08T12:54:07;10.10;99.90
23335;DHT22;11839;48.598;8.870;2024-03-08T12:56:35;9.80;99.90
23335;DHT22;11839;48.598;8.870;2024-03-08T12:59:04;10.10;99.90
23335;DHT22;11839;48.598;8.870;2024-03-08T13:01:32;10.30;99.90
23335;DHT22;11839;48.598;8.870;2024-03-08T13:03:58;10.00;99.90
23335;DHT22;11839;48.598;8.870;2024-03-08T13:06:26;10.20;99.90
23335;DHT22;11839;48.598;8.870;2024-03-08T13:08:55;10.10;99.90
23335;DHT22;11839;48.598;8.870;2024-03-08T13:11:22;9.90;99.90
23335;DHT22;11839;48.598;8.870;2024-03-08T13:13:50;10.20;99.90
23335;DHT22;11839;48.598;8.870;2024-03-08T13:16:18;10.30;99.90
23335;DHT22;11839;48.598;8.870;2024-03-08T13:18:46;10.20;99.90
23335;DHT22;11839;48.598;8.870;2024-03-08T13:21:15;10.50;99.90
23335;DHT22;11839;48.598;8.870;2024-03-08T13:23:45;10.20;99.90
23335;DHT22;11839;48.598;8.870;2024-03-08T13:26:15;10.20;99.90
23335;DHT22;11839;48.598;8.870;2024-03-08T13:28:42;10.50;99.90
23335;DHT22;11839;48.598;8.870;2024-03-08T13:31:09;11.00;99.90
23335;DHT22;11839;48.598;8.870;2024-03-08T13:33:38;11.50;99.90
23335;DHT22;11839;48.598;8.870;2024-03-08T13:36:07;11.50;99.90
23335;DHT22;11839;48.598;8.870;2024-03-08T13:38:41;11.30;99.90
23335;DHT22;11839;48.598;8.870;2024-03-08T13:41:08;10.90;99.90
23335;DHT22;11839;48.598;8.870;2024-03-08T13:43:35;10.90;99.90
23335;DHT22;11839;48.598;8.870;2024-03-08T13:46:03;10.80;99.90
23335;DHT22;11839;48.598;8.870;2024-03-08T13:48:29;10.80;99.90
23335;DHT22;11839;48.598;8.870;2024-03-08T13:50:58;10.80;99.90
23335;DHT22;11839;48.598;8.870;2024-03-08T13:53:25;10.80;99.90
23335;DHT22;11839;48.598;8.870;2024-03-08T13:55:52;10.70;99.90
23335;DHT22;11839;48.598;8.870;2024-03-08T13:58:19;10.60;99.90
23335;DHT22;11839;48.598;8.870;2024-03-08T14:00:46;10.70;99.90
23335;DHT22;11839;48.598;8.870;2024-03-08T14:03:13;10.90;99.90
23335;DHT22;11839;48.598;8.870;2024-03-08T14:05:39;11.10;99.90
23335;DHT22;11839;48.598;8.870;2024-03-08T14:08:09;11.10;99.90
23335;DHT22;11839;48.598;8.870;2024-03-08T14:10:37;11.00;99.90
23335;DHT22;11839;48.598;8.870;2024-03-08T14:13:04;11.10;99.90
23335;DHT22;11839;48.598;8.870;2024-03-08T14:15:32;11.40;99.90
23335;DHT22;11839;48.598;8.870;2024-03-08T14:18:01;11.50;99.90
23335;DHT22;11839;48.598;8.870;2024-03-08T14:20:28;11.80;99.90
23335;DHT22;11839;48.598;8.870;2024-03-08T14:22:55;11.40;99.90
23335;DHT22;11839;48.598;8.870;2024-03-08T14:25:23;11.40;99.90
23335;DHT22;11839;48.598;8.870;2024-03-08T14:27:51;11.60;99.90
23335;DHT22;11839;48.598;8.870;2024-03-08T14:30:19;11.30;99.90
23335;DHT22;11839;48.598;8.870;2024-03-08T14:33:00;11.60;99.90
23335;DHT22;11839;48.598;8.870;2024-03-08T14:35:27;11.80;99.90
23335;DHT22;11839;48.598;8.870;2024-03-08T14:37:55;11.90;99.90
23335;DHT22;11839;48.598;8.870;2024-03-08T14:40:23;11.90;99.90
23335;DHT22;11839;48.598;8.870;2024-03-08T14:42:51;11.90;99.90
23335;DHT22;11839;48.598;8.870;2024-03-08T14:45:18;12.00;99.90
23335;DHT22;11839;48.598;8.870;2024-03-08T14:47:45;11.90;99.90
23335;DHT22;11839;48.598;8.870;2024-03-08T14:50:15;12.10;99.90
23335;DHT22;11839;48.598;8.870;2024-03-08T14:52:42;12.20;99.90
23335;DHT22;11839;48.598;8.870;2024-03-08T14:55:09;12.00;99.90
23335;DHT22;11839;48.598;8.870;2024-03-08T14:57:40;11.70;99.90
23335;DHT22;11839;48.598;8.870;2024-03-08T15:00:08;11.80;99.90
23335;DHT22;11839;48.598;8.870;2024-03-08T15:02:42;12.20;99.90
23335;DHT22;11839;48.598;8.870;2024-03-08T15:05:09;11.90;99.90
23335;DHT22;11839;48.598;8.870;2024-03-08T15:07:37;11.30;99.90
23335;DHT22;11839;48.598;8.870;2024-03-08T15:10:06;11.20;99.90
23335;DHT22;11839;48.598;8.870;2024-03-08T15:12:36;11.30;99.90
23335;DHT22;11839;48.598;8.870;2024-03-08T15:15:07;11.40;99.90
23335;DHT22;11839;48.598;8.870;2024-03-08T15:17:35;11.20;99.90
23335;DHT22;11839;48.598;8.870;2024-03-08T15:20:06;11.10;99.90
23335;DHT22;11839;48.598;8.870;2024-03-08T15:22:41;10.90;99.90
23335;DHT22;11839;48.598;8.870;2024-03-08T15:25:08;10.70;99.90
23335;DHT22;11839;48.598;8.870;2024-03-08T15:27:37;10.50;99.90
23335;DHT22;11839;48.598;8.870;2024-03-08T15:30:07;10.80;99.90
23335;DHT22;11839;48.598;8.870;2024-03-08T15:32:39;11.00;99.90
23335;DHT22;11839;48.598;8.870;2024-03-08T15:35:07;11.00;99.90
23335;DHT22;11839;48.598;8.870;2024-03-08T15:37:39;10.80;99.90
23335;DHT22;11839;48.598;8.870;2024-03-08T15:40:09;10.70;99.90
23335;DHT22;11839;48.598;8.870;2024-03-08T15:42:37;11.20;99.90
23335;DHT22;11839;48.598;8.870;2024-03-08T15:45:07;11.30;99.90
23335;DHT22;11839;48.598;8.870;2024-03-08T15:47:37;11.00;99.90